Time;durP1;ratioP1;P1;durP2;ratioP2;P2;SDS_P1;SDS_P2;PMS_P1;PMS_P2;Temp;Humidity;BMP_temperature;BMP_pressure;BME280_temperature;BME280_humidity;BME280_pressure;Samples;Min_cycle;Max_cycle;Signal;HPM_P1;HPM_P2
2022/12/06 00:00:44;;;;;;;22.57;14.87;;;;;;;4.21;100.00;98398.47;4961069;29;20201;-88
2022/12/06 00:03:11;;;;;;;23.03;14.80;;;;;;;4.26;100.00;98390.44;4961108;29;20188;-86
2022/12/06 00:05:38;;;;;;;23.83;13.20;;;;;;;4.28;100.00;98391.25;4952251;29;20295;-88
2022/12/06 00:08:05;;;;;;;20.53;12.87;;;;;;;4.26;100.00;98399.16;4948848;29;20260;-88
2022/12/06 00:10:34;;;;;;;18.03;13.10;;;;;;;4.25;100.00;98396.59;4945354;29;20228;-88
2022/12/06 00:13:03;;;;;;;16.67;11.50;;;;;;;4.21;100.00;98398.47;4935697;29;20765;-88
2022/12/06 00:15:30;;;;;;;18.90;12.60;;;;;;;4.23;100.00;98401.03;4935560;29;20232;-88
2022/12/06 00:17:57;;;;;;;16.97;11.73;;;;;;;4.24;100.00;98408.84;4935552;29;20232;-87
2022/12/06 00:20:23;;;;;;;15.10;10.97;;;;;;;4.23;100.00;98407.09;4935736;29;20307;-87
2022/12/06 00:22:50;;;;;;;16.37;10.57;;;;;;;4.22;100.00;98394.94;4935527;29;20220;-86
2022/12/06 00:25:16;;;;;;;14.40;9.87;;;;;;;4.21;100.00;98393.25;4935420;29;20221;-88
2022/12/06 00:27:43;;;;;;;14.67;10.23;;;;;;;4.20;100.00;98395.91;4935133;29;20240;-87
2022/12/06 00:30:11;;;;;;;13.97;10.17;;;;;;;4.20;100.00;98383.69;4935362;29;20213;-87
2022/12/06 00:32:37;;;;;;;14.80;10.07;;;;;;;4.22;100.00;98389.72;4935509;29;20325;-87
2022/12/06 00:35:05;;;;;;;15.90;10.13;;;;;;;4.14;100.00;98376.09;4935358;29;20209;-87
2022/12/06 00:37:31;;;;;;;15.40;9.90;;;;;;;4.21;100.00;98382.78;4935256;29;20235;-88
2022/12/06 00:39:58;;;;;;;12.83;9.53;;;;;;;4.15;100.00;98377.78;4935355;29;20384;-88
2022/12/06 00:42:24;;;;;;;10.37;8.77;;;;;;;4.10;100.00;98379.72;4935164;29;20213;-81
2022/12/06 00:44:51;;;;;;;12.87;9.00;;;;;;;4.08;100.00;98378.94;4934833;29;20212;-82
2022/12/06 00:47:19;;;;;;;11.27;8.70;;;;;;;4.03;100.00;98375.66;4935000;29;20235;-88
2022/12/06 00:49:45;;;;;;;11.90;8.93;;;;;;;3.92;100.00;98377.84;4938106;29;20209;-88
2022/12/06 00:52:12;;;;;;;10.87;8.40;;;;;;;3.88;100.00;98380.63;4944682;29;20209;-88
2022/12/06 00:54:38;;;;;;;15.07;10.47;;;;;;;4.01;100.00;98389.69;4953693;29;20237;-88
2022/12/06 00:57:05;;;;;;;12.93;9.37;;;;;;;4.01;100.00;98398.41;4944044;29;20237;-87
2022/12/06 00:59:31;;;;;;;13.10;9.80;;;;;;;3.84;100.00;98385.13;4935167;29;20298;-88
2022/12/06 01:01:58;;;;;;;13.03;9.60;;;;;;;3.72;100.00;98393.44;4934930;29;20683;-88
2022/12/06 01:04:26;;;;;;;15.53;11.77;;;;;;;3.56;100.00;98383.63;4935026;29;20215;-88
2022/12/06 01:06:52;;;;;;;14.47;9.53;;;;;;;3.47;100.00;98391.81;4934031;29;20216;-87
2022/12/06 01:09:19;;;;;;;13.77;9.57;;;;;;;3.41;100.00;98392.88;4934299;29;20218;-88
2022/12/06 01:11:45;;;;;;;10.90;8.53;;;;;;;3.39;100.00;98386.00;4934601;29;20598;-88
2022/12/06 01:14:12;;;;;;;13.00;9.27;;;;;;;3.37;100.00;98387.84;4934858;29;20234;-88
2022/12/06 01:16:38;;;;;;;13.93;10.10;;;;;;;3.32;100.00;98384.53;4934555;29;20218;-88
2022/12/06 01:19:06;;;;;;;14.53;9.20;;;;;;;3.34;100.00;98383.56;4934760;29;20222;-87
2022/12/06 01:21:34;;;;;;;15.50;9.97;;;;;;;3.40;100.00;98393.81;4934607;29;20216;-88
2022/12/06 01:24:00;;;;;;;15.63;10.23;;;;;;;3.42;100.00;98394.59;4935038;29;20209;-88
2022/12/06 01:26:29;;;;;;;17.50;11.00;;;;;;;3.47;100.00;98392.66;4934241;29;20215;-88
2022/12/06 01:28:57;;;;;;;17.27;11.10;;;;;;;3.48;100.00;98388.31;4934480;29;20235;-87
2022/12/06 01:31:24;;;;;;;15.63;10.33;;;;;;;3.48;100.00;98393.53;4934420;29;20212;-87
2022/12/06 01:33:51;;;;;;;17.83;10.60;;;;;;;3.44;100.00;98387.56;4934434;29;20248;-87
2022/12/06 01:36:18;;;;;;;17.37;11.67;;;;;;;3.41;100.00;98382.44;4934132;29;20232;-87
2022/12/06 01:38:49;;;;;;;17.73;11.27;;;;;;;3.45;100.00;98378.81;4934501;29;20239;-86
2022/12/06 01:41:15;;;;;;;15.73;10.20;;;;;;;3.44;100.00;98366.66;4934406;29;20216;-87
2022/12/06 01:43:44;;;;;;;20.97;13.87;;;;;;;3.43;100.00;98372.78;4934396;29;20671;-88
2022/12/06 01:46:22;;;;;;;19.43;12.73;;;;;;;3.48;100.00;98370.84;4933932;29;20687;-87
2022/12/06 01:48:53;;;;;;;21.03;12.80;;;;;;;3.50;100.00;98376.03;4934481;29;20244;-88
2022/12/06 01:51:20;;;;;;;18.90;12.80;;;;;;;3.58;100.00;98371.34;4935098;29;20229;-88
2022/12/06 01:53:50;;;;;;;21.67;12.33;;;;;;;3.63;100.00;98372.91;4936598;29;20252;-87
2022/12/06 01:56:17;;;;;;;22.07;13.40;;;;;;;3.61;100.00;98366.84;4935787;28;20239;-87
2022/12/06 01:58:46;;;;;;;19.13;12.50;;;;;;;3.62;100.00;98371.16;4935677;29;20240;-88
2022/12/06 02:01:13;;;;;;;21.37;14.10;;;;;;;3.61;100.00;98366.84;4935206;29;20220;-88
2022/12/06 02:03:40;;;;;;;23.13;14.57;;;;;;;3.62;100.00;98375.56;4935117;29;20227;-87
2022/12/06 02:06:08;;;;;;;23.33;13.90;;;;;;;3.62;100.00;98368.56;4933852;29;20609;-88
2022/12/06 02:08:36;;;;;;;15.70;11.03;;;;;;;3.66;100.00;98361.47;4934185;29;20244;-88
2022/12/06 02:11:05;;;;;;;20.67;13.43;;;;;;;3.73;100.00;98363.78;4934201;29;20208;-88
2022/12/06 02:13:34;;;;;;;18.63;11.67;;;;;;;3.71;100.00;98360.38;4934379;29;20255;-88
2022/12/06 02:16:12;;;;;;;20.50;14.43;;;;;;;3.69;100.00;98356.13;4934045;29;20311;-88
2022/12/06 02:18:46;;;;;;;21.33;12.37;;;;;;;3.69;100.00;98357.00;4934205;29;20719;-89
2022/12/06 02:21:20;;;;;;;19.57;12.90;;;;;;;3.70;100.00;98358.69;4938088;29;20296;-88
2022/12/06 02:24:11;;;;;;;16.83;10.87;;;;;;;3.75;100.00;98359.38;4937696;29;20679;-88
2022/12/06 02:26:44;;;;;;;21.23;13.03;;;;;;;3.81;100.00;98351.28;4937378;29;20694;-88
2022/12/06 02:29:34;;;;;;;20.37;12.40;;;;;;;3.74;100.00;98352.41;4938052;29;20197;-88
2022/12/06 02:32:07;;;;;;;15.67;11.20;;;;;;;3.76;100.00;98352.34;4939735;29;20223;-88
2022/12/06 02:34:43;;;;;;;19.00;12.33;;;;;;;3.73;100.00;98353.31;4942128;29;20243;-87
2022/12/06 02:37:12;;;;;;;18.70;12.93;;;;;;;3.71;100.00;98355.16;4942104;29;20234;-88
2022/12/06 02:39:47;;;;;;;19.47;12.83;;;;;;;3.71;100.00;98344.69;4949453;29;20208;-88
2022/12/06 02:42:17;;;;;;;15.40;11.13;;;;;;;3.75;100.00;98348.03;4958929;29;20263;-87
2022/12/06 02:44:46;;;;;;;18.40;12.70;;;;;;;3.74;100.00;98341.94;4952722;29;20221;-87
2022/12/06 02:47:18;;;;;;;17.43;12.23;;;;;;;3.77;100.00;98343.59;4939670;29;20241;-88
2022/12/06 02:49:48;;;;;;;16.83;11.43;;;;;;;3.73;100.00;98348.09;4937315;29;20219;-88
2022/12/06 02:52:16;;;;;;;16.87;11.90;;;;;;;3.73;100.00;98345.47;4937703;29;20223;-88
2022/12/06 02:54:47;;;;;;;18.50;12.60;;;;;;;3.68;100.00;98342.19;4937239;29;20239;-87
2022/12/06 02:57:13;;;;;;;16.20;11.13;;;;;;;3.68;100.00;98341.34;4937013;29;20247;-87
2022/12/06 02:59:50;;;;;;;18.73;12.50;;;;;;;3.67;100.00;98342.28;4937358;29;20213;-87
2022/12/06 03:02:19;;;;;;;19.97;13.23;;;;;;;3.71;100.00;98342.09;4937203;29;20212;-88
2022/12/06 03:04:58;;;;;;;18.87;13.03;;;;;;;3.70;100.00;98343.00;4937359;29;20230;-87
2022/12/06 03:07:46;;;;;;;18.63;12.13;;;;;;;3.73;100.00;98344.66;4936671;29;20675;-88
2022/12/06 03:10:34;;;;;;;16.90;12.67;;;;;;;3.75;100.00;98346.28;4931480;29;20220;-88
2022/12/06 03:13:12;;;;;;;17.17;12.70;;;;;;;3.82;100.00;98342.53;4938082;29;20226;-87
2022/12/06 03:15:49;;;;;;;16.37;11.27;;;;;;;3.84;100.00;98340.69;4954492;29;20195;-87
2022/12/06 03:18:22;;;;;;;16.67;11.77;;;;;;;3.85;100.00;98331.94;4961839;29;20279;-87
2022/12/06 03:20:53;;;;;;;17.20;11.93;;;;;;;3.86;100.00;98332.78;4961133;29;20207;-88
2022/12/06 03:23:24;;;;;;;16.17;10.63;;;;;;;3.83;100.00;98328.53;4956879;29;20205;-87
2022/12/06 03:25:52;;;;;;;17.03;11.63;;;;;;;3.81;100.00;98330.38;4952352;29;20231;-86
2022/12/06 03:28:21;;;;;;;16.40;12.10;;;;;;;3.81;100.00;98329.50;4943082;29;20236;-86
2022/12/06 03:30:51;;;;;;;16.53;11.33;;;;;;;3.82;100.00;98321.63;4935524;29;20222;-86
2022/12/06 03:33:22;;;;;;;21.63;13.77;;;;;;;3.87;100.00;98324.03;4936745;29;20647;-86
2022/12/06 03:35:52;;;;;;;16.20;11.40;;;;;;;3.83;100.00;98323.31;4936829;29;20212;-87
2022/12/06 03:38:25;;;;;;;16.10;11.33;;;;;;;3.86;100.00;98323.19;4936431;29;20236;-87
2022/12/06 03:40:54;;;;;;;15.43;11.40;;;;;;;3.86;100.00;98320.56;4936503;29;20213;-86
2022/12/06 03:43:20;;;;;;;16.47;11.63;;;;;;;3.88;100.00;98318.75;4936464;29;20213;-88
2022/12/06 03:45:53;;;;;;;16.90;11.60;;;;;;;3.91;100.00;98316.00;4936340;29;20216;-88
2022/12/06 03:48:26;;;;;;;14.87;10.50;;;;;;;3.91;100.00;98320.41;4936364;29;20236;-87
2022/12/06 03:50:58;;;;;;;17.43;11.70;;;;;;;3.90;100.00;98322.16;4936395;29;20559;-87
2022/12/06 03:53:24;;;;;;;16.40;11.27;;;;;;;3.91;100.00;98321.22;4936446;29;20252;-86
2022/12/06 03:55:51;;;;;;;16.00;11.00;;;;;;;3.89;100.00;98312.63;4936071;29;20220;-87
2022/12/06 03:58:18;;;;;;;11.73;8.83;;;;;;;3.87;100.00;98314.44;4935781;29;20228;-87
2022/12/06 04:00:45;;;;;;;15.37;10.90;;;;;;;3.83;100.00;98312.00;4936291;29;20333;-87
2022/12/06 04:03:12;;;;;;;14.50;10.60;;;;;;;3.82;100.00;98299.84;4935855;29;20227;-88
2022/12/06 04:05:40;;;;;;;15.50;10.23;;;;;;;3.78;100.00;98308.72;4935887;29;20213;-88
2022/12/06 04:08:06;;;;;;;13.80;10.40;;;;;;;3.79;100.00;98306.03;4935590;29;20251;-87
2022/12/06 04:10:33;;;;;;;14.83;10.37;;;;;;;3.76;100.00;98306.16;4936119;29;20216;-87
2022/12/06 04:13:04;;;;;;;14.43;10.73;;;;;;;3.73;100.00;98301.03;4935507;29;20674;-88
2022/12/06 04:15:34;;;;;;;16.50;11.07;;;;;;;3.71;100.00;98302.88;4935683;29;20732;-87
2022/12/06 04:18:15;;;;;;;18.00;11.47;;;;;;;3.71;100.00;98300.28;4935415;29;20369;-87
2022/12/06 04:23:34;;;;;;;20.43;12.63;;;;;;;3.70;100.00;98300.31;4936000;29;20293;-88
2022/12/06 04:26:01;;;;;;;20.00;12.77;;;;;;;3.69;100.00;98294.25;4938124;29;20224;-87
2022/12/06 04:39:25;;;;;;;19.33;12.43;;;;;;;3.77;100.00;98276.50;4935381;29;20223;-88
2022/12/06 04:44:36;;;;;;;16.57;11.03;;;;;;;3.81;100.00;98277.22;4935277;29;20225;-88
2022/12/06 04:47:03;;;;;;;15.43;10.73;;;;;;;3.80;100.00;98275.53;4935023;29;20319;-88
2022/12/06 04:49:29;;;;;;;15.90;9.93;;;;;;;3.80;100.00;98278.16;4935300;29;20208;-87
2022/12/06 04:51:57;;;;;;;15.00;10.27;;;;;;;3.80;100.00;98278.97;4935064;29;20691;-88
2022/12/06 04:54:24;;;;;;;18.83;11.57;;;;;;;3.78;100.00;98272.97;4934942;29;20267;-88
2022/12/06 04:56:51;;;;;;;15.40;11.20;;;;;;;3.76;100.00;98274.81;4934743;29;20587;-88
2022/12/06 04:59:18;;;;;;;13.20;9.33;;;;;;;3.75;100.00;98267.88;4934978;29;20268;-87
2022/12/06 05:01:45;;;;;;;17.37;10.63;;;;;;;3.74;100.00;98267.94;4935084;29;20212;-87
2022/12/06 05:04:12;;;;;;;15.50;9.87;;;;;;;3.74;100.00;98270.53;4935404;29;20208;-87
2022/12/06 05:06:38;;;;;;;13.63;9.30;;;;;;;3.74;100.00;98262.72;4934939;29;20217;-87
2022/12/06 05:09:06;;;;;;;11.97;8.77;;;;;;;3.78;100.00;98270.34;4963570;23;20335;-81
2022/12/06 05:11:33;;;;;;;15.17;11.27;;;;;;;3.73;100.00;98264.47;4953442;28;20213;-81
2022/12/06 05:14:00;;;;;;;16.20;11.70;;;;;;;3.77;100.00;98266.03;4953269;29;20229;-82
2022/12/06 05:16:27;;;;;;;16.30;11.07;;;;;;;3.73;100.00;98268.84;4953323;29;20259;-82
2022/12/06 05:18:53;;;;;;;17.90;11.97;;;;;;;3.75;100.00;98278.34;4939065;29;20237;-80
2022/12/06 05:21:22;;;;;;;17.17;10.73;;;;;;;3.78;100.00;98286.03;4934376;29;20224;-82
2022/12/06 05:23:49;;;;;;;17.47;11.57;;;;;;;3.76;100.00;98276.56;4934069;29;20279;-82
2022/12/06 05:26:19;;;;;;;14.80;10.50;;;;;;;3.75;100.00;98286.19;4934063;29;20208;-82
2022/12/06 05:28:46;;;;;;;17.57;12.83;;;;;;;3.73;100.00;98285.38;4934141;29;20236;-82
2022/12/06 05:31:13;;;;;;;16.03;10.70;;;;;;;3.76;100.00;98269.56;4933997;29;20210;-82
2022/12/06 05:33:40;;;;;;;18.63;11.57;;;;;;;3.76;100.00;98269.56;4933979;29;20216;-82
2022/12/06 05:36:08;;;;;;;16.70;11.53;;;;;;;3.78;100.00;98265.13;4933690;29;20580;-82
2022/12/06 05:38:34;;;;;;;14.97;10.63;;;;;;;3.78;100.00;98277.38;4933838;29;20605;-82
2022/12/06 05:41:01;;;;;;;17.97;12.23;;;;;;;3.77;100.00;98273.88;4934091;29;20216;-82
2022/12/06 05:43:29;;;;;;;16.63;11.20;;;;;;;3.78;100.00;98266.91;4934188;29;20221;-82
2022/12/06 05:45:56;;;;;;;16.73;10.33;;;;;;;3.78;100.00;98272.97;4933846;29;20213;-82
2022/12/06 05:48:23;;;;;;;19.10;12.00;;;;;;;3.82;100.00;98264.09;4933866;29;20228;-82
2022/12/06 05:50:50;;;;;;;17.10;12.17;;;;;;;3.82;100.00;98269.31;4933902;29;20216;-81
2022/12/06 05:53:17;;;;;;;16.63;11.33;;;;;;;3.81;100.00;98267.63;4933728;29;20583;-82
2022/12/06 05:55:44;;;;;;;16.60;10.57;;;;;;;3.82;100.00;98271.94;4937625;29;20243;-82
2022/12/06 05:58:10;;;;;;;16.97;11.07;;;;;;;3.83;100.00;98264.94;4937669;29;20239;-82
2022/12/06 06:00:38;;;;;;;19.97;12.43;;;;;;;3.91;100.00;98279.41;4937759;29;20212;-82
2022/12/06 06:03:05;;;;;;;19.30;11.97;;;;;;;3.91;100.00;98278.56;4937781;29;20208;-82
2022/12/06 06:05:32;;;;;;;19.77;13.60;;;;;;;3.89;100.00;98276.00;4938010;29;20220;-82
2022/12/06 06:07:58;;;;;;;18.20;11.43;;;;;;;3.93;100.00;98277.59;4937319;29;20745;-82
2022/12/06 06:10:25;;;;;;;19.23;13.10;;;;;;;3.95;100.00;98282.75;4938136;29;20219;-82
2022/12/06 06:12:52;;;;;;;18.93;12.70;;;;;;;3.94;100.00;98279.28;4937605;29;20220;-82
2022/12/06 06:15:19;;;;;;;15.27;10.83;;;;;;;3.94;100.00;98283.66;4937627;29;20244;-81
2022/12/06 06:17:47;;;;;;;15.10;10.63;;;;;;;3.96;100.00;98274.84;4937248;29;20238;-81
2022/12/06 06:20:13;;;;;;;15.83;11.33;;;;;;;3.98;100.00;98274.78;4937379;29;20231;-81
2022/12/06 06:22:41;;;;;;;19.70;11.50;;;;;;;3.94;100.00;98274.06;4937468;29;20208;-82
2022/12/06 06:25:09;;;;;;;16.60;11.60;;;;;;;3.94;100.00;98273.19;4937512;29;20290;-82
2022/12/06 06:27:37;;;;;;;15.90;10.47;;;;;;;3.97;100.00;98271.31;4936971;29;20240;-80
2022/12/06 06:30:04;;;;;;;15.40;11.80;;;;;;;3.93;100.00;98269.75;4937337;29;20208;-81
2022/12/06 06:32:31;;;;;;;15.80;10.80;;;;;;;3.97;100.00;98270.47;4937307;29;20717;-81
2022/12/06 06:34:59;;;;;;;13.57;9.77;;;;;;;3.98;100.00;98269.56;4937138;29;20239;-81
2022/12/06 06:37:25;;;;;;;17.63;11.80;;;;;;;3.95;100.00;98259.22;4937008;29;20232;-81
2022/12/06 06:39:52;;;;;;;15.87;11.70;;;;;;;3.97;100.00;98257.41;4937321;29;20679;-79
2022/12/06 06:42:18;;;;;;;13.83;9.83;;;;;;;3.96;100.00;98261.75;4937312;29;20216;-79
2022/12/06 06:44:45;;;;;;;13.50;9.53;;;;;;;3.95;100.00;98264.44;4937240;29;20230;-80
2022/12/06 06:47:11;;;;;;;15.30;10.53;;;;;;;3.95;100.00;98270.53;4936694;29;20210;-80
2022/12/06 06:49:38;;;;;;;13.53;10.30;;;;;;;3.94;100.00;98271.44;4937202;29;20218;-80
2022/12/06 06:52:06;;;;;;;15.43;10.57;;;;;;;3.93;100.00;98271.50;4937147;29;20565;-81
2022/12/06 06:54:32;;;;;;;16.57;11.53;;;;;;;3.90;100.00;98272.47;4937401;29;20229;-80
2022/12/06 06:56:59;;;;;;;18.43;12.50;;;;;;;3.97;100.00;98273.91;4936440;29;20695;-80
2022/12/06 06:59:25;;;;;;;16.90;11.63;;;;;;;3.95;100.00;98274.91;4936656;29;20232;-81
2022/12/06 07:01:52;;;;;;;17.50;12.27;;;;;;;3.96;100.00;98272.22;4936883;29;20204;-82
2022/12/06 07:04:18;;;;;;;17.07;11.73;;;;;;;3.96;100.00;98266.13;4936916;29;20208;-81
2022/12/06 07:06:47;;;;;;;17.90;12.10;;;;;;;3.99;100.00;98272.13;4936185;29;20683;-81
2022/12/06 07:09:15;;;;;;;17.50;11.93;;;;;;;3.95;100.00;98273.16;4936575;29;20245;-81
2022/12/06 07:11:42;;;;;;;16.67;11.80;;;;;;;3.92;100.00;98275.03;4936650;29;20212;-81
2022/12/06 07:14:08;;;;;;;17.13;11.77;;;;;;;3.96;100.00;98272.22;4936588;29;20220;-80
2022/12/06 07:16:35;;;;;;;19.30;11.60;;;;;;;3.88;100.00;98263.84;4936311;29;20212;-79
2022/12/06 07:19:01;;;;;;;15.80;11.20;;;;;;;3.89;100.00;98276.00;4936554;29;20230;-80
2022/12/06 07:21:31;;;;;;;15.30;11.77;;;;;;;3.89;100.00;98278.63;4936538;29;20600;-80
2022/12/06 07:23:59;;;;;;;15.47;10.97;;;;;;;3.87;100.00;98275.22;4937227;29;20216;-82
2022/12/06 07:26:28;;;;;;;16.97;11.20;;;;;;;3.89;100.00;98276.00;4936394;29;20212;-81
2022/12/06 07:28:55;;;;;;;17.30;12.03;;;;;;;3.88;100.00;98274.31;4935328;29;20236;-81
2022/12/06 07:31:23;;;;;;;14.27;9.93;;;;;;;3.90;100.00;98272.47;4936288;29;20204;-81
2022/12/06 07:33:52;;;;;;;17.10;12.13;;;;;;;3.96;100.00;98269.63;4936645;29;20223;-80
2022/12/06 07:36:18;;;;;;;16.53;11.77;;;;;;;3.93;100.00;98272.38;4934424;29;20228;-80
2022/12/06 07:38:48;;;;;;;14.97;11.27;;;;;;;3.95;100.00;98274.91;4936405;29;20236;-81
2022/12/06 07:46:57;;;;;;;14.97;10.73;;;;;;;4.01;100.00;98278.13;4935912;29;20189;-81
2022/12/06 07:49:23;;;;;;;15.33;10.07;;;;;;;4.00;100.00;98283.41;4935508;29;20244;-80
2022/12/06 07:51:50;;;;;;;16.00;11.50;;;;;;;3.97;100.00;98283.56;4933877;29;20240;-80
2022/12/06 07:54:17;;;;;;;16.10;10.90;;;;;;;3.99;100.00;98282.56;4935942;29;20213;-80
2022/12/06 07:56:43;;;;;;;16.10;11.43;;;;;;;3.98;100.00;98280.84;4935683;29;20611;-78
2022/12/06 07:59:14;;;;;;;16.20;11.10;;;;;;;4.01;100.00;98272.91;4935677;29;20235;-82
2022/12/06 08:01:42;;;;;;;16.50;10.53;;;;;;;4.03;100.00;98278.06;4935760;29;20212;-81
2022/12/06 08:04:08;;;;;;;14.53;10.50;;;;;;;4.00;100.00;98279.03;4935820;29;20239;-80
2022/12/06 08:06:35;;;;;;;15.30;11.27;;;;;;;4.06;100.00;98272.69;4935518;29;20219;-80
2022/12/06 08:09:06;;;;;;;14.07;10.73;;;;;;;4.03;100.00;98284.13;4935650;29;20344;-80
2022/12/06 08:11:39;;;;;;;17.27;11.63;;;;;;;4.08;100.00;98276.09;4935748;29;20672;-81
2022/12/06 08:14:05;;;;;;;13.90;10.60;;;;;;;4.07;100.00;98279.63;4935551;29;20250;-78
2022/12/06 08:16:33;;;;;;;14.27;10.17;;;;;;;4.06;100.00;98278.78;4934715;29;20230;-81
2022/12/06 08:19:06;;;;;;;17.10;12.60;;;;;;;4.08;100.00;98276.94;4935639;29;20243;-80
2022/12/06 08:21:33;;;;;;;15.33;10.73;;;;;;;4.10;100.00;98279.50;4935735;29;20212;-80
2022/12/06 08:24:02;;;;;;;17.10;11.67;;;;;;;4.11;100.00;98274.22;4935630;29;20304;-80
2022/12/06 08:26:31;;;;;;;15.63;10.47;;;;;;;4.15;100.00;98278.41;4935167;29;20250;-79
2022/12/06 08:29:02;;;;;;;14.27;9.77;;;;;;;4.14;100.00;98270.59;4935794;29;20232;-80
2022/12/06 08:31:29;;;;;;;14.70;9.73;;;;;;;4.16;100.00;98276.66;4935256;29;20216;-80
2022/12/06 08:33:57;;;;;;;11.40;8.93;;;;;;;4.22;100.00;98282.47;4935491;29;20295;-80
2022/12/06 08:36:27;;;;;;;10.50;7.97;;;;;;;4.21;100.00;98277.31;4935021;29;20872;-79
2022/12/06 08:38:53;;;;;;;12.57;8.53;;;;;;;4.25;100.00;98284.97;4935188;29;20232;-79
2022/12/06 08:44:05;;;;;;;11.10;8.37;;;;;;;4.25;100.00;98279.72;4954378;29;20262;-77
2022/12/06 08:46:34;;;;;;;11.50;8.50;;;;;;;4.27;100.00;98283.13;4954080;28;20238;-77
2022/12/06 08:49:02;;;;;;;10.60;7.87;;;;;;;4.27;100.00;98277.88;4954130;28;20232;-77
2022/12/06 08:51:29;;;;;;;11.77;7.87;;;;;;;4.27;100.00;98288.34;4954323;28;20671;-77
2022/12/06 08:53:57;;;;;;;11.07;8.30;;;;;;;4.26;100.00;98286.66;4953956;28;20220;-79
2022/12/06 08:56:24;;;;;;;13.03;8.87;;;;;;;4.24;100.00;98282.41;4953552;28;20246;-77
2022/12/06 08:58:52;;;;;;;12.43;8.60;;;;;;;4.26;100.00;98281.44;4953961;28;20229;-78
2022/12/06 09:01:20;;;;;;;10.67;8.03;;;;;;;4.28;100.00;98287.44;4954043;28;20219;-80
2022/12/06 09:03:47;;;;;;;12.03;8.70;;;;;;;4.33;100.00;98287.25;4953915;28;20216;-79
2022/12/06 09:06:15;;;;;;;12.17;8.50;;;;;;;4.32;100.00;98291.63;4953630;28;20569;-80
2022/12/06 09:08:42;;;;;;;14.17;10.10;;;;;;;4.30;100.00;98292.59;4953620;28;20236;-79
2022/12/06 09:11:09;;;;;;;12.30;8.83;;;;;;;4.30;100.00;98283.00;4954224;28;20218;-79
2022/12/06 09:13:37;;;;;;;13.03;10.07;;;;;;;4.26;100.00;98283.19;4953870;28;20577;-78
2022/12/06 09:16:06;;;;;;;14.67;9.93;;;;;;;4.27;100.00;98287.53;4953207;28;20710;-77
2022/12/06 09:18:33;;;;;;;13.70;10.10;;;;;;;4.30;100.00;98290.84;4953409;28;20235;-76
2022/12/06 09:20:59;;;;;;;14.40;9.60;;;;;;;4.31;100.00;98289.06;4953503;28;20216;-79
2022/12/06 09:23:27;;;;;;;11.97;8.33;;;;;;;4.34;100.00;98294.19;4953449;28;20224;-78
2022/12/06 09:25:54;;;;;;;10.70;8.67;;;;;;;4.42;100.00;98285.09;4953369;28;20204;-78
2022/12/06 09:28:20;;;;;;;12.63;8.93;;;;;;;4.44;100.00;98285.88;4952529;28;20243;-85
2022/12/06 09:30:47;;;;;;;12.67;9.30;;;;;;;4.50;100.00;98285.63;4953445;28;20216;-79
2022/12/06 09:33:13;;;;;;;12.63;9.63;;;;;;;4.48;100.00;98286.59;4953395;28;20330;-81
2022/12/06 09:35:40;;;;;;;12.97;9.43;;;;;;;4.52;100.00;98283.78;4953083;28;20240;-81
2022/12/06 09:38:07;;;;;;;13.50;9.53;;;;;;;4.53;100.00;98290.72;4952973;28;20232;-81
2022/12/06 09:40:43;;;;;;;14.30;10.70;;;;;;;4.57;100.00;98283.56;4953274;28;20215;-81
2022/12/06 09:43:26;;;;;;;15.23;10.57;;;;;;;4.56;100.00;98285.38;4953607;28;20328;-81
2022/12/06 09:46:13;;;;;;;15.50;10.77;;;;;;;4.61;100.00;98283.41;4953371;28;20220;-82
2022/12/06 09:48:55;;;;;;;13.43;9.27;;;;;;;4.62;100.00;98282.47;4971849;28;20321;-82
2022/12/06 09:51:35;;;;;;;15.50;10.70;;;;;;;4.67;100.00;98285.75;4973771;28;20310;-82
2022/12/06 09:54:18;;;;;;;14.40;10.50;;;;;;;4.66;100.00;98281.44;4953806;28;20217;-81
2022/12/06 09:56:51;;;;;;;15.60;10.70;;;;;;;4.72;100.00;98275.06;4952948;28;20231;-80
2022/12/06 09:59:29;;;;;;;15.90;10.07;;;;;;;4.72;100.00;98286.41;4953495;28;20241;-81
2022/12/06 10:02:10;;;;;;;14.97;10.47;;;;;;;4.67;100.00;98280.53;4953058;28;20244;-81
2022/12/06 10:04:55;;;;;;;13.53;9.47;;;;;;;4.72;100.00;98278.56;4953035;28;20216;-81
2022/12/06 10:07:27;;;;;;;17.27;10.63;;;;;;;4.64;100.00;98278.03;4950530;28;20223;-81
2022/12/06 10:10:04;;;;;;;13.30;9.17;;;;;;;4.65;100.00;98290.19;4953339;28;20199;-81
2022/12/06 10:12:50;;;;;;;14.90;9.50;;;;;;;4.66;100.00;98275.34;4952358;28;20254;-80
2022/12/06 10:15:26;;;;;;;16.03;10.60;;;;;;;4.62;100.00;98285.09;4954114;28;20221;-80
2022/12/06 10:18:08;;;;;;;14.73;9.83;;;;;;;4.57;100.00;98280.97;4955405;28;20719;-80
2022/12/06 10:20:41;;;;;;;14.90;9.50;;;;;;;4.60;100.00;98279.09;4951286;28;20235;-80
2022/12/06 10:23:22;;;;;;;13.43;9.13;;;;;;;4.59;100.00;98279.16;4952766;28;20228;-87
2022/12/06 10:25:58;;;;;;;13.73;8.90;;;;;;;4.61;100.00;98275.56;4953085;28;20216;-84
2022/12/06 10:28:37;;;;;;;11.93;8.50;;;;;;;4.57;100.00;98276.59;4950731;28;20240;-83
2022/12/06 10:31:12;;;;;;;13.27;8.13;;;;;;;4.53;100.00;98277.63;4953830;28;20679;-83
2022/12/06 10:33:51;;;;;;;9.83;6.90;;;;;;;4.54;100.00;98274.13;4952621;28;20582;-82
2022/12/06 10:36:29;;;;;;;11.00;7.13;;;;;;;4.60;100.00;98276.47;4950894;28;20709;-79
2022/12/06 10:39:02;;;;;;;11.07;7.17;;;;;;;4.58;100.00;98273.03;4953053;28;20602;-80
2022/12/06 10:41:35;;;;;;;11.80;7.47;;;;;;;4.57;100.00;98271.34;4954596;28;20295;-80
2022/12/06 10:44:10;;;;;;;11.50;8.40;;;;;;;4.54;100.00;98266.25;4955218;28;20213;-80
2022/12/06 10:49:36;;;;;;;10.23;6.93;;;;;;;4.56;100.00;98261.81;4954178;28;20322;-82
2022/12/06 10:52:10;;;;;;;9.93;6.90;;;;;;;4.59;100.00;98259.03;4956161;28;20212;-78
2022/12/06 10:54:43;;;;;;;11.70;7.90;;;;;;;4.61;100.00;98257.22;4956102;28;20219;-78
2022/12/06 10:57:18;;;;;;;11.10;7.10;;;;;;;4.60;100.00;98260.75;4955606;28;20250;-78
2022/12/06 10:59:53;;;;;;;9.97;7.23;;;;;;;4.59;100.00;98253.81;4956212;28;20215;-78
2022/12/06 11:02:27;;;;;;;10.40;7.07;;;;;;;4.59;100.00;98253.81;4956378;28;20217;-79
2022/12/06 11:04:59;;;;;;;8.67;6.40;;;;;;;4.59;100.00;98266.06;4956099;28;20216;-79
2022/12/06 11:10:17;;;;;;;12.23;7.60;;;;;;;4.57;100.00;98255.66;4918490;29;20313;-85
2022/12/06 11:12:44;;;;;;;10.13;7.00;;;;;;;4.60;100.00;98249.44;4919200;29;20223;-85
2022/12/06 11:15:18;;;;;;;9.77;7.30;;;;;;;4.66;100.00;98255.25;4918823;29;20221;-84
2022/12/06 11:17:47;;;;;;;12.20;7.83;;;;;;;4.61;100.00;98244.13;4918365;29;20223;-85
2022/12/06 11:20:22;;;;;;;10.10;7.30;;;;;;;4.55;100.00;98251.41;4918581;29;20233;-86
2022/12/06 11:22:58;;;;;;;11.37;7.60;;;;;;;4.47;100.00;98249.09;4919188;29;20218;-84
2022/12/06 11:25:31;;;;;;;10.97;7.30;;;;;;;4.50;100.00;98254.22;4918384;29;20214;-85
2022/12/06 11:28:05;;;;;;;10.33;7.30;;;;;;;4.49;100.00;98251.66;4919241;29;20244;-85
2022/12/06 11:30:33;;;;;;;8.47;6.30;;;;;;;4.42;100.00;98251.09;4919059;29;20201;-85
2022/12/06 11:33:01;;;;;;;10.87;7.50;;;;;;;4.37;100.00;98252.19;4937998;29;20209;-84
2022/12/06 11:35:28;;;;;;;10.13;6.60;;;;;;;4.37;100.00;98263.50;4939043;29;20273;-85
2022/12/06 11:38:00;;;;;;;9.93;6.57;;;;;;;4.27;100.00;98267.41;4935577;29;20232;-85
2022/12/06 11:40:30;;;;;;;9.00;6.37;;;;;;;4.29;100.00;98265.59;4924736;29;20300;-85
2022/12/06 11:43:00;;;;;;;8.53;5.57;;;;;;;4.19;100.00;98266.03;4925068;29;20219;-86
2022/12/06 11:45:29;;;;;;;8.73;5.07;;;;;;;4.18;100.00;98262.59;4918915;29;20223;-86
2022/12/06 11:48:00;;;;;;;8.40;5.47;;;;;;;4.10;100.00;98263.81;4917019;29;20228;-86
2022/12/06 11:50:29;;;;;;;7.73;5.60;;;;;;;4.08;100.00;98266.50;4918215;29;20197;-86
2022/12/06 11:53:01;;;;;;;6.53;5.00;;;;;;;4.12;100.00;98269.81;4915642;29;20216;-85
2022/12/06 11:55:31;;;;;;;9.63;5.80;;;;;;;4.14;100.00;98268.84;4917104;29;20220;-86
2022/12/06 11:58:02;;;;;;;7.30;5.93;;;;;;;4.14;100.00;98266.25;4915356;29;20234;-86
2022/12/06 12:00:28;;;;;;;6.00;4.57;;;;;;;4.19;100.00;98266.91;4917475;29;20213;-86